sensor_id;sensor_type;location;lat;lon;timestamp;P1;durP1;ratioP1;P2;durP2;ratioP2
16600;SDS011;34891;48.164;11.572;2024-03-02T00:00:11;13.32;;;5.40;;
16600;SDS011;34891;48.164;11.572;2024-03-02T00:05:17;9.75;;;4.82;;
16600;SDS011;34891;48.164;11.572;2024-03-02T00:10:21;11.27;;;5.18;;
16600;SDS011;34891;48.164;11.572;2024-03-02T00:15:33;9.70;;;3.78;;
16600;SDS011;34891;48.164;11.572;2024-03-02T00:25:46;8.95;;;3.33;;
16600;SDS011;34891;48.164;11.572;2024-03-02T00:30:56;8.90;;;4.43;;
16600;SDS011;34891;48.164;11.572;2024-03-02T00:35:59;12.02;;;4.65;;
16600;SDS011;34891;48.164;11.572;2024-03-02T00:41:05;9.95;;;5.18;;
16600;SDS011;34891;48.164;11.572;2024-03-02T00:46:10;6.47;;;3.47;;
16600;SDS011;34891;48.164;11.572;2024-03-02T00:51:13;14.25;;;5.40;;
16600;SDS011;34891;48.164;11.572;2024-03-02T00:56:17;12.50;;;5.63;;
16600;SDS011;34891;48.164;11.572;2024-03-02T01:01:20;15.55;;;6.20;;
16600;SDS011;34891;48.164;11.572;2024-03-02T01:06:24;15.23;;;5.85;;
16600;SDS011;34891;48.164;11.572;2024-03-02T01:11:28;9.80;;;4.78;;
16600;SDS011;34891;48.164;11.572;2024-03-02T01:21:33;11.27;;;5.15;;
16600;SDS011;34891;48.164;11.572;2024-03-02T01:26:38;9.60;;;3.28;;
16600;SDS011;34891;48.164;11.572;2024-03-02T01:31:41;8.77;;;3.92;;
16600;SDS011;34891;48.164;11.572;2024-03-02T01:36:44;14.37;;;5.43;;
16600;SDS011;34891;48.164;11.572;2024-03-02T01:41:48;11.65;;;5.55;;
16600;SDS011;34891;48.164;11.572;2024-03-02T01:46:51;5.78;;;2.75;;
16600;SDS011;34891;48.164;11.572;2024-03-02T01:51:54;12.88;;;4.80;;
16600;SDS011;34891;48.164;11.572;2024-03-02T01:56:58;8.68;;;2.80;;
16600;SDS011;34891;48.164;11.572;2024-03-02T02:02:01;12.65;;;4.90;;
16600;SDS011;34891;48.164;11.572;2024-03-02T02:07:03;7.43;;;3.45;;
16600;SDS011;34891;48.164;11.572;2024-03-02T02:17:12;12.70;;;5.28;;
16600;SDS011;34891;48.164;11.572;2024-03-02T02:22:16;11.25;;;5.10;;
16600;SDS011;34891;48.164;11.572;2024-03-02T02:27:18;11.15;;;4.72;;
16600;SDS011;34891;48.164;11.572;2024-03-02T02:32:21;11.20;;;5.25;;
16600;SDS011;34891;48.164;11.572;2024-03-02T02:37:25;14.73;;;5.40;;
16600;SDS011;34891;48.164;11.572;2024-03-02T02:47:30;11.20;;;4.80;;
16600;SDS011;34891;48.164;11.572;2024-03-02T02:52:39;11.43;;;4.80;;
16600;SDS011;34891;48.164;11.572;2024-03-02T02:57:42;9.85;;;4.63;;
16600;SDS011;34891;48.164;11.572;2024-03-02T03:02:47;10.10;;;3.50;;
16600;SDS011;34891;48.164;11.572;2024-03-02T03:07:53;10.68;;;4.55;;
16600;SDS011;34891;48.164;11.572;2024-03-02T03:12:55;13.32;;;5.80;;
16600;SDS011;34891;48.164;11.572;2024-03-02T03:17:58;11.88;;;5.22;;
16600;SDS011;34891;48.164;11.572;2024-03-02T03:23:02;11.60;;;5.32;;
16600;SDS011;34891;48.164;11.572;2024-03-02T03:28:05;13.35;;;5.70;;
16600;SDS011;34891;48.164;11.572;2024-03-02T03:33:08;13.20;;;4.93;;
16600;SDS011;34891;48.164;11.572;2024-03-02T03:38:12;12.32;;;4.95;;
16600;SDS011;34891;48.164;11.572;2024-03-02T03:43:15;10.43;;;4.68;;
16600;SDS011;34891;48.164;11.572;2024-03-02T03:48:18;9.98;;;4.30;;
16600;SDS011;34891;48.164;11.572;2024-03-02T03:53:22;7.00;;;2.97;;
16600;SDS011;34891;48.164;11.572;2024-03-02T03:58:26;7.20;;;3.20;;
16600;SDS011;34891;48.164;11.572;2024-03-02T04:03:28;9.18;;;3.42;;
16600;SDS011;34891;48.164;11.572;2024-03-02T04:08:33;7.22;;;3.47;;
16600;SDS011;34891;48.164;11.572;2024-03-02T04:13:35;13.05;;;5.30;;
16600;SDS011;34891;48.164;11.572;2024-03-02T04:18:38;8.98;;;3.33;;
16600;SDS011;34891;48.164;11.572;2024-03-02T04:23:43;14.85;;;6.78;;
16600;SDS011;34891;48.164;11.572;2024-03-02T04:28:45;13.57;;;4.88;;
16600;SDS011;34891;48.164;11.572;2024-03-02T04:33:48;15.98;;;6.30;;
16600;SDS011;34891;48.164;11.572;2024-03-02T04:38:52;18.17;;;6.00;;
16600;SDS011;34891;48.164;11.572;2024-03-02T04:43:55;15.50;;;6.55;;
16600;SDS011;34891;48.164;11.572;2024-03-02T04:48:57;16.45;;;7.63;;
16600;SDS011;34891;48.164;11.572;2024-03-02T04:54:02;19.37;;;6.93;;
16600;SDS011;34891;48.164;11.572;2024-03-02T04:59:05;20.75;;;7.50;;
16600;SDS011;34891;48.164;11.572;2024-03-02T05:04:08;16.77;;;7.60;;
16600;SDS011;34891;48.164;11.572;2024-03-02T05:09:14;16.58;;;7.07;;
16600;SDS011;34891;48.164;11.572;2024-03-02T05:19:19;15.25;;;6.82;;
16600;SDS011;34891;48.164;11.572;2024-03-02T05:24:23;15.82;;;6.32;;
16600;SDS011;34891;48.164;11.572;2024-03-02T05:29:28;18.45;;;8.18;;
16600;SDS011;34891;48.164;11.572;2024-03-02T05:34:31;19.70;;;7.47;;
16600;SDS011;34891;48.164;11.572;2024-03-02T05:39:37;17.17;;;7.55;;
16600;SDS011;34891;48.164;11.572;2024-03-02T05:44:40;17.35;;;7.70;;
16600;SDS011;34891;48.164;11.572;2024-03-02T05:49:42;19.85;;;7.82;;
16600;SDS011;34891;48.164;11.572;2024-03-02T05:54:46;20.60;;;8.20;;
16600;SDS011;34891;48.164;11.572;2024-03-02T05:59:50;16.52;;;7.53;;
16600;SDS011;34891;48.164;11.572;2024-03-02T06:04:54;17.30;;;7.70;;
16600;SDS011;34891;48.164;11.572;2024-03-02T06:09:59;20.33;;;8.15;;
16600;SDS011;34891;48.164;11.572;2024-03-02T06:20:05;21.02;;;8.30;;
16600;SDS011;34891;48.164;11.572;2024-03-02T06:30:13;18.05;;;8.27;;
16600;SDS011;34891;48.164;11.572;2024-03-02T06:35:16;20.27;;;8.75;;
16600;SDS011;34891;48.164;11.572;2024-03-02T06:40:19;20.92;;;8.38;;
16600;SDS011;34891;48.164;11.572;2024-03-02T06:45:23;17.40;;;7.80;;
16600;SDS011;34891;48.164;11.572;2024-03-02T06:50:26;19.83;;;8.18;;
16600;SDS011;34891;48.164;11.572;2024-03-02T06:55:29;22.60;;;8.70;;
16600;SDS011;34891;48.164;11.572;2024-03-02T07:00:33;19.10;;;8.32;;
16600;SDS011;34891;48.164;11.572;2024-03-02T07:05:36;19.17;;;7.68;;
16600;SDS011;34891;48.164;11.572;2024-03-02T07:10:39;19.88;;;8.52;;
16600;SDS011;34891;48.164;11.572;2024-03-02T07:15:42;18.25;;;7.80;;
16600;SDS011;34891;48.164;11.572;2024-03-02T07:21:01;18.98;;;8.07;;
16600;SDS011;34891;48.164;11.572;2024-03-02T07:26:04;19.07;;;9.00;;
16600;SDS011;34891;48.164;11.572;2024-03-02T07:31:12;15.52;;;8.05;;
16600;SDS011;34891;48.164;11.572;2024-03-02T07:36:14;18.67;;;8.32;;
16600;SDS011;34891;48.164;11.572;2024-03-02T07:41:17;21.38;;;7.85;;
16600;SDS011;34891;48.164;11.572;2024-03-02T07:46:21;19.40;;;8.13;;
16600;SDS011;34891;48.164;11.572;2024-03-02T07:51:24;19.13;;;8.02;;
16600;SDS011;34891;48.164;11.572;2024-03-02T07:56:27;17.08;;;8.25;;
16600;SDS011;34891;48.164;11.572;2024-03-02T08:01:31;16.45;;;8.00;;
16600;SDS011;34891;48.164;11.572;2024-03-02T08:06:34;12.90;;;7.07;;
16600;SDS011;34891;48.164;11.572;2024-03-02T08:11:37;13.75;;;8.63;;
16600;SDS011;34891;48.164;11.572;2024-03-02T08:16:41;12.00;;;7.03;;
16600;SDS011;34891;48.164;11.572;2024-03-02T08:21:44;10.32;;;5.93;;
16600;SDS011;34891;48.164;11.572;2024-03-02T08:26:47;9.63;;;6.55;;
16600;SDS011;34891;48.164;11.572;2024-03-02T08:31:51;11.07;;;7.53;;
16600;SDS011;34891;48.164;11.572;2024-03-02T08:36:53;11.77;;;8.63;;
16600;SDS011;34891;48.164;11.572;2024-03-02T08:41:56;12.02;;;8.73;;
16600;SDS011;34891;48.164;11.572;2024-03-02T08:47:00;12.80;;;10.02;;
16600;SDS011;34891;48.164;11.572;2024-03-02T08:52:03;13.77;;;9.75;;
16600;SDS011;34891;48.164;11.572;2024-03-02T08:57:06;11.88;;;9.00;;
16600;SDS011;34891;48.164;11.572;2024-03-02T09:02:11;13.73;;;8.98;;
16600;SDS011;34891;48.164;11.572;2024-03-02T09:07:14;12.00;;;9.00;;
16600;SDS011;34891;48.164;11.572;2024-03-02T09:12:16;13.38;;;9.63;;
16600;SDS011;34891;48.164;11.572;2024-03-02T09:17:20;10.88;;;8.23;;
16600;SDS011;34891;48.164;11.572;2024-03-02T09:22:23;13.45;;;8.88;;
16600;SDS011;34891;48.164;11.572;2024-03-02T09:27:26;11.45;;;7.68;;
16600;SDS011;34891;48.164;11.572;2024-03-02T09:32:30;12.07;;;8.63;;
16600;SDS011;34891;48.164;11.572;2024-03-02T09:37:33;14.15;;;9.30;;
16600;SDS011;34891;48.164;11.572;2024-03-02T09:42:36;12.63;;;9.10;;
16600;SDS011;34891;48.164;11.572;2024-03-02T09:47:40;9.88;;;7.28;;
16600;SDS011;34891;48.164;11.572;2024-03-02T09:52:43;9.85;;;7.20;;
16600;SDS011;34891;48.164;11.572;2024-03-02T09:57:46;9.30;;;6.07;;
16600;SDS011;34891;48.164;11.572;2024-03-02T10:02:52;10.80;;;6.93;;
16600;SDS011;34891;48.164;11.572;2024-03-02T10:07:59;9.55;;;6.25;;
16600;SDS011;34891;48.164;11.572;2024-03-02T10:13:04;12.05;;;7.82;;
16600;SDS011;34891;48.164;11.572;2024-03-02T10:18:09;12.40;;;7.38;;
16600;SDS011;34891;48.164;11.572;2024-03-02T10:23:14;11.63;;;7.68;;
16600;SDS011;34891;48.164;11.572;2024-03-02T10:28:17;9.80;;;5.70;;
16600;SDS011;34891;48.164;11.572;2024-03-02T10:33:21;10.63;;;7.05;;
16600;SDS011;34891;48.164;11.572;2024-03-02T10:38:24;11.43;;;6.85;;
16600;SDS011;34891;48.164;11.572;2024-03-02T10:43:28;10.38;;;6.82;;
16600;SDS011;34891;48.164;11.572;2024-03-02T10:48:32;13.20;;;7.68;;
16600;SDS011;34891;48.164;11.572;2024-03-02T10:53:35;13.75;;;8.18;;
16600;SDS011;34891;48.164;11.572;2024-03-02T10:58:38;11.95;;;8.00;;
16600;SDS011;34891;48.164;11.572;2024-03-02T11:03:42;13.57;;;8.18;;
16600;SDS011;34891;48.164;11.572;2024-03-02T11:08:47;13.38;;;8.88;;
16600;SDS011;34891;48.164;11.572;2024-03-02T11:13:51;15.38;;;9.02;;
16600;SDS011;34891;48.164;11.572;2024-03-02T11:18:56;20.45;;;9.85;;
16600;SDS011;34891;48.164;11.572;2024-03-02T11:24:00;18.40;;;10.25;;
16600;SDS011;34891;48.164;11.572;2024-03-02T11:29:03;15.48;;;9.98;;
16600;SDS011;34891;48.164;11.572;2024-03-02T11:34:18;15.65;;;10.32;;
16600;SDS011;34891;48.164;11.572;2024-03-02T11:39:31;16.77;;;11.02;;
16600;SDS011;34891;48.164;11.572;2024-03-02T11:44:34;16.15;;;10.05;;
16600;SDS011;34891;48.164;11.572;2024-03-02T11:49:39;17.80;;;12.27;;
16600;SDS011;34891;48.164;11.572;2024-03-02T11:54:42;17.70;;;11.35;;
16600;SDS011;34891;48.164;11.572;2024-03-02T11:59:49;17.50;;;10.75;;
16600;SDS011;34891;48.164;11.572;2024-03-02T12:04:55;18.00;;;11.95;;
16600;SDS011;34891;48.164;11.572;2024-03-02T12:10:01;19.02;;;12.25;;
16600;SDS011;34891;48.164;11.572;2024-03-02T12:15:05;18.20;;;11.45;;
16600;SDS011;34891;48.164;11.572;2024-03-02T12:20:13;19.25;;;12.82;;
16600;SDS011;34891;48.164;11.572;2024-03-02T12:25:15;16.10;;;11.20;;
16600;SDS011;34891;48.164;11.572;2024-03-02T12:30:19;18.88;;;11.43;;
16600;SDS011;34891;48.164;11.572;2024-03-02T12:35:23;18.92;;;11.20;;
16600;SDS011;34891;48.164;11.572;2024-03-02T12:40:30;18.23;;;12.23;;
16600;SDS011;34891;48.164;11.572;2024-03-02T12:45:47;17.92;;;11.82;;
16600;SDS011;34891;48.164;11.572;2024-03-02T12:51:03;20.20;;;11.25;;
16600;SDS011;34891;48.164;11.572;2024-03-02T12:56:10;16.42;;;10.65;;
16600;SDS011;34891;48.164;11.572;2024-03-02T13:01:19;17.10;;;10.63;;
16600;SDS011;34891;48.164;11.572;2024-03-02T13:06:28;17.98;;;11.02;;
16600;SDS011;34891;48.164;11.572;2024-03-02T13:11:43;17.98;;;10.35;;
16600;SDS011;34891;48.164;11.572;2024-03-02T13:16:52;17.60;;;10.68;;
16600;SDS011;34891;48.164;11.572;2024-03-02T13:21:59;17.70;;;10.73;;
16600;SDS011;34891;48.164;11.572;2024-03-02T13:27:04;18.20;;;10.75;;
16600;SDS011;34891;48.164;11.572;2024-03-02T13:32:10;17.92;;;9.95;;
16600;SDS011;34891;48.164;11.572;2024-03-02T13:37:22;17.55;;;9.20;;
16600;SDS011;34891;48.164;11.572;2024-03-02T13:42:33;18.50;;;10.65;;
16600;SDS011;34891;48.164;11.572;2024-03-02T13:47:38;18.23;;;10.98;;
16600;SDS011;34891;48.164;11.572;2024-03-02T13:52:48;16.63;;;9.18;;
16600;SDS011;34891;48.164;11.572;2024-03-02T13:58:08;20.77;;;11.50;;
16600;SDS011;34891;48.164;11.572;2024-03-02T14:03:19;20.05;;;11.00;;
16600;SDS011;34891;48.164;11.572;2024-03-02T14:08:26;16.60;;;9.50;;
16600;SDS011;34891;48.164;11.572;2024-03-02T14:13:29;16.38;;;8.10;;
16600;SDS011;34891;48.164;11.572;2024-03-02T14:18:35;14.25;;;7.03;;
16600;SDS011;34891;48.164;11.572;2024-03-02T14:23:45;16.55;;;6.95;;
16600;SDS011;34891;48.164;11.572;2024-03-02T14:34:08;16.05;;;6.65;;
16600;SDS011;34891;48.164;11.572;2024-03-02T14:39:22;17.38;;;8.07;;
16600;SDS011;34891;48.164;11.572;2024-03-02T14:44:40;14.15;;;7.13;;
16600;SDS011;34891;48.164;11.572;2024-03-02T14:49:47;16.95;;;7.30;;
16600;SDS011;34891;48.164;11.572;2024-03-02T14:54:58;16.85;;;8.80;;
16600;SDS011;34891;48.164;11.572;2024-03-02T15:05:14;20.05;;;8.38;;
16600;SDS011;34891;48.164;11.572;2024-03-02T15:10:22;18.67;;;8.85;;
16600;SDS011;34891;48.164;11.572;2024-03-02T15:15:42;14.57;;;7.45;;
16600;SDS011;34891;48.164;11.572;2024-03-02T15:20:53;22.27;;;9.63;;
16600;SDS011;34891;48.164;11.572;2024-03-02T15:26:01;24.83;;;9.70;;
16600;SDS011;34891;48.164;11.572;2024-03-02T15:31:10;21.35;;;9.27;;
16600;SDS011;34891;48.164;11.572;2024-03-02T15:36:16;21.70;;;9.60;;
16600;SDS011;34891;48.164;11.572;2024-03-02T15:41:30;18.88;;;9.02;;
16600;SDS011;34891;48.164;11.572;2024-03-02T15:46:37;21.48;;;9.43;;
16600;SDS011;34891;48.164;11.572;2024-03-02T15:51:44;19.25;;;9.27;;
16600;SDS011;34891;48.164;11.572;2024-03-02T16:02:26;19.58;;;9.43;;
16600;SDS011;34891;48.164;11.572;2024-03-02T16:07:31;23.13;;;10.00;;
16600;SDS011;34891;48.164;11.572;2024-03-02T16:12:34;28.23;;;11.25;;
16600;SDS011;34891;48.164;11.572;2024-03-02T16:17:48;24.20;;;9.70;;
16600;SDS011;34891;48.164;11.572;2024-03-02T16:23:01;26.02;;;9.60;;
16600;SDS011;34891;48.164;11.572;2024-03-02T16:28:04;29.30;;;11.55;;
16600;SDS011;34891;48.164;11.572;2024-03-02T16:33:10;27.60;;;10.77;;
16600;SDS011;34891;48.164;11.572;2024-03-02T16:38:20;28.15;;;9.75;;
16600;SDS011;34891;48.164;11.572;2024-03-02T16:43:28;23.85;;;9.60;;
16600;SDS011;34891;48.164;11.572;2024-03-02T16:48:34;27.50;;;9.70;;
16600;SDS011;34891;48.164;11.572;2024-03-02T16:53:42;28.45;;;9.25;;
16600;SDS011;34891;48.164;11.572;2024-03-02T16:59:07;29.60;;;9.52;;
16600;SDS011;34891;48.164;11.572;2024-03-02T17:04:15;31.85;;;11.00;;
16600;SDS011;34891;48.164;11.572;2024-03-02T17:09:26;25.52;;;8.82;;
16600;SDS011;34891;48.164;11.572;2024-03-02T17:14:31;27.75;;;10.00;;
16600;SDS011;34891;48.164;11.572;2024-03-02T17:19:37;31.80;;;11.15;;
16600;SDS011;34891;48.164;11.572;2024-03-02T17:24:44;24.65;;;8.25;;
16600;SDS011;34891;48.164;11.572;2024-03-02T17:29:50;29.30;;;10.02;;
16600;SDS011;34891;48.164;11.572;2024-03-02T17:35:08;29.48;;;10.32;;
16600;SDS011;34891;48.164;11.572;2024-03-02T17:40:21;35.22;;;10.45;;
16600;SDS011;34891;48.164;11.572;2024-03-02T17:45:29;32.88;;;10.00;;
16600;SDS011;34891;48.164;11.572;2024-03-02T17:50:36;27.55;;;10.63;;
16600;SDS011;34891;48.164;11.572;2024-03-02T17:55:43;31.45;;;10.93;;
16600;SDS011;34891;48.164;11.572;2024-03-02T18:01:07;34.65;;;11.27;;
16600;SDS011;34891;48.164;11.572;2024-03-02T18:11:59;27.17;;;9.77;;
16600;SDS011;34891;48.164;11.572;2024-03-02T18:17:05;28.98;;;9.85;;
16600;SDS011;34891;48.164;11.572;2024-03-02T18:27:16;30.92;;;10.93;;
16600;SDS011;34891;48.164;11.572;2024-03-02T18:32:21;31.20;;;10.75;;
16600;SDS011;34891;48.164;11.572;2024-03-02T18:37:30;33.03;;;11.13;;
16600;SDS011;34891;48.164;11.572;2024-03-02T18:42:35;29.77;;;11.20;;
16600;SDS011;34891;48.164;11.572;2024-03-02T18:47:45;31.13;;;11.07;;
16600;SDS011;34891;48.164;11.572;2024-03-02T18:52:50;35.15;;;12.13;;
16600;SDS011;34891;48.164;11.572;2024-03-02T18:57:56;33.95;;;12.07;;
16600;SDS011;34891;48.164;11.572;2024-03-02T19:03:05;35.83;;;11.50;;
16600;SDS011;34891;48.164;11.572;2024-03-02T19:08:15;40.90;;;11.23;;
16600;SDS011;34891;48.164;11.572;2024-03-02T19:13:24;37.38;;;12.50;;
16600;SDS011;34891;48.164;11.572;2024-03-02T19:18:38;36.45;;;10.38;;
16600;SDS011;34891;48.164;11.572;2024-03-02T19:23:44;31.60;;;11.32;;
16600;SDS011;34891;48.164;11.572;2024-03-02T19:28:58;32.50;;;11.90;;
16600;SDS011;34891;48.164;11.572;2024-03-02T19:34:07;34.90;;;12.18;;
16600;SDS011;34891;48.164;11.572;2024-03-02T19:39:13;33.28;;;12.65;;
16600;SDS011;34891;48.164;11.572;2024-03-02T19:49:45;35.38;;;11.25;;
16600;SDS011;34891;48.164;11.572;2024-03-02T19:54:55;37.22;;;13.40;;
16600;SDS011;34891;48.164;11.572;2024-03-02T20:00:10;41.70;;;12.88;;
16600;SDS011;34891;48.164;11.572;2024-03-02T20:05:34;38.88;;;13.23;;
16600;SDS011;34891;48.164;11.572;2024-03-02T20:10:51;35.17;;;12.40;;
16600;SDS011;34891;48.164;11.572;2024-03-02T20:16:01;34.50;;;13.30;;
16600;SDS011;34891;48.164;11.572;2024-03-02T20:21:07;34.53;;;11.82;;
16600;SDS011;34891;48.164;11.572;2024-03-02T20:26:17;38.50;;;12.15;;
16600;SDS011;34891;48.164;11.572;2024-03-02T20:31:29;32.70;;;11.93;;
16600;SDS011;34891;48.164;11.572;2024-03-02T20:36:46;38.13;;;12.85;;
16600;SDS011;34891;48.164;11.572;2024-03-02T20:41:53;35.22;;;12.40;;
16600;SDS011;34891;48.164;11.572;2024-03-02T20:53:46;36.53;;;12.05;;
16600;SDS011;34891;48.164;11.572;2024-03-02T20:58:52;33.47;;;11.15;;
16600;SDS011;34891;48.164;11.572;2024-03-02T21:04:01;38.30;;;13.23;;
16600;SDS011;34891;48.164;11.572;2024-03-02T21:09:09;40.67;;;13.43;;
16600;SDS011;34891;48.164;11.572;2024-03-02T21:14:16;36.63;;;11.93;;
16600;SDS011;34891;48.164;11.572;2024-03-02T21:19:35;33.03;;;11.40;;
16600;SDS011;34891;48.164;11.572;2024-03-02T21:30:07;22.30;;;6.10;;
16600;SDS011;34891;48.164;11.572;2024-03-02T21:35:17;40.78;;;12.95;;
16600;SDS011;34891;48.164;11.572;2024-03-02T21:40:34;28.17;;;9.82;;
16600;SDS011;34891;48.164;11.572;2024-03-02T21:45:50;38.00;;;11.80;;
16600;SDS011;34891;48.164;11.572;2024-03-02T21:51:03;42.13;;;13.52;;
16600;SDS011;34891;48.164;11.572;2024-03-02T21:56:09;45.00;;;13.20;;
16600;SDS011;34891;48.164;11.572;2024-03-02T22:01:25;42.10;;;12.60;;
16600;SDS011;34891;48.164;11.572;2024-03-02T22:06:33;45.08;;;13.38;;
16600;SDS011;34891;48.164;11.572;2024-03-02T22:11:53;39.00;;;12.13;;
16600;SDS011;34891;48.164;11.572;2024-03-02T22:17:12;38.92;;;12.27;;
16600;SDS011;34891;48.164;11.572;2024-03-02T22:22:26;34.15;;;11.60;;
16600;SDS011;34891;48.164;11.572;2024-03-02T22:27:36;40.65;;;12.32;;
16600;SDS011;34891;48.164;11.572;2024-03-02T22:32:45;39.28;;;13.27;;
16600;SDS011;34891;48.164;11.572;2024-03-02T22:37:57;35.65;;;11.95;;
16600;SDS011;34891;48.164;11.572;2024-03-02T22:43:07;40.30;;;12.40;;
16600;SDS011;34891;48.164;11.572;2024-03-02T22:48:19;36.20;;;11.55;;
16600;SDS011;34891;48.164;11.572;2024-03-02T22:53:23;39.40;;;12.68;;
16600;SDS011;34891;48.164;11.572;2024-03-02T22:58:27;38.53;;;12.47;;
16600;SDS011;34891;48.164;11.572;2024-03-02T23:03:37;34.50;;;11.55;;
16600;SDS011;34891;48.164;11.572;2024-03-02T23:08:43;39.22;;;11.57;;
16600;SDS011;34891;48.164;11.572;2024-03-02T23:14:03;37.90;;;12.02;;
16600;SDS011;34891;48.164;11.572;2024-03-02T23:19:10;36.97;;;11.90;;
16600;SDS011;34891;48.164;11.572;2024-03-02T23:24:22;35.42;;;11.82;;
16600;SDS011;34891;48.164;11.572;2024-03-02T23:29:26;38.00;;;12.20;;
16600;SDS011;34891;48.164;11.572;2024-03-02T23:34:34;22.50;;;8.50;;
16600;SDS011;34891;48.164;11.572;2024-03-02T23:39:38;42.22;;;13.20;;
16600;SDS011;34891;48.164;11.572;2024-03-02T23:45:07;39.10;;;10.27;;
16600;SDS011;34891;48.164;11.572;2024-03-02T23:50:18;35.83;;;11.98;;
16600;SDS011;34891;48.164;11.572;2024-03-02T23:55:31;14.40;;;6.10;;
